Time;durP1;ratioP1;P1;durP2;ratioP2;P2;SDS_P1;SDS_P2;PMS_P1;PMS_P2;Temp;Humidity;BMP_temperature;BMP_pressure;BME280_temperature;BME280_humidity;BME280_pressure;Samples;Min_cycle;Max_cycle;Signal;HPM_P1;HPM_P2
2023/11/10 00:00:29;;;;;;;12.70;7.40;;;;;;;8.65;94.79;101284.48;106392;1257;68304;-83
2023/11/10 00:03:02;;;;;;;13.80;7.60;;;;;;;8.61;94.53;101283.08;106195;1251;73149;-83
2023/11/10 00:05:36;;;;;;;18.40;8.40;;;;;;;8.51;94.20;101287.21;106290;1256;60368;-82
2023/11/10 00:08:13;;;;;;;15.10;7.90;;;;;;;8.52;93.88;101289.28;106879;1253;60597;-83
2023/11/10 00:10:47;;;;;;;13.10;7.40;;;;;;;8.53;93.35;101289.19;106209;1254;73863;-83
2023/11/10 00:13:21;;;;;;;16.40;8.00;;;;;;;8.47;93.53;101288.97;106259;1258;68178;-82
2023/11/10 00:15:55;;;;;;;17.60;8.90;;;;;;;8.51;92.88;101292.25;106352;1257;72438;-83
2023/11/10 00:18:29;;;;;;;15.30;8.60;;;;;;;8.36;93.52;101293.90;106295;1253;60443;-82
2023/11/10 00:21:03;;;;;;;18.40;9.30;;;;;;;8.30;93.74;101295.34;107462;1253;60497;-83
2023/11/10 00:23:37;;;;;;;14.60;7.40;;;;;;;8.27;93.68;101294.45;106420;1254;73010;-83
2023/11/10 00:26:19;;;;;;;13.40;7.00;;;;;;;8.13;94.32;101297.90;106667;1252;68344;-83
2023/11/10 00:28:53;;;;;;;22.70;10.40;;;;;;;8.10;94.56;101305.06;106349;1256;72714;-83
2023/11/10 00:31:36;;;;;;;21.30;10.70;;;;;;;8.10;94.23;101309.15;106976;1251;60585;-83
2023/11/10 00:34:16;;;;;;;19.60;10.00;;;;;;;8.09;94.23;101307.38;106152;1258;60486;-82
2023/11/10 00:36:58;;;;;;;16.90;8.90;;;;;;;8.07;94.26;101304.14;106018;1260;73851;-83
2023/11/10 00:39:38;;;;;;;18.90;9.60;;;;;;;8.08;93.94;101300.34;106344;1251;69206;-82
2023/11/10 00:42:18;;;;;;;19.50;7.60;;;;;;;8.08;93.51;101307.52;107121;1254;71420;-83
2023/11/10 00:44:57;;;;;;;20.90;10.30;;;;;;;8.05;93.44;101304.15;106246;1255;60649;-83
2023/11/10 00:47:37;;;;;;;22.80;10.40;;;;;;;8.07;92.67;101301.36;106363;1253;60451;-83
2023/11/10 00:50:17;;;;;;;18.80;10.00;;;;;;;7.95;92.52;101299.92;106274;1251;71624;-82
2023/11/10 00:52:57;;;;;;;20.10;9.70;;;;;;;8.08;91.00;101302.41;106412;1253;67930;-82
2023/11/10 00:55:31;;;;;;;19.80;9.20;;;;;;;8.00;91.28;101298.07;106290;1254;72805;-82
2023/11/10 00:58:06;;;;;;;19.00;8.80;;;;;;;7.99;91.43;101302.83;106411;1257;60475;-82
2023/11/10 01:00:40;;;;;;;19.90;9.90;;;;;;;7.85;92.38;101298.46;106246;1256;60420;-83
2023/11/10 01:03:14;;;;;;;23.90;11.00;;;;;;;7.88;92.08;101296.30;106677;1251;73910;-83
2023/11/10 01:05:51;;;;;;;22.80;9.80;;;;;;;7.95;91.43;101299.16;106345;1254;68539;-83
2023/11/10 01:08:25;;;;;;;19.80;9.70;;;;;;;7.90;91.41;101299.11;106222;1256;71430;-83
2023/11/10 01:10:59;;;;;;;17.90;9.70;;;;;;;7.87;91.58;101306.66;106243;1251;60534;-82
2023/11/10 01:13:34;;;;;;;17.40;10.00;;;;;;;7.81;91.81;101307.20;107054;1257;60429;-82
2023/11/10 01:16:08;;;;;;;18.00;9.10;;;;;;;7.82;91.62;101307.27;106444;1255;73835;-82
2023/11/10 01:18:42;;;;;;;20.50;10.00;;;;;;;7.82;90.77;101309.39;106234;1256;67622;-83
2023/11/10 01:21:17;;;;;;;18.40;9.00;;;;;;;7.75;91.28;101307.19;106245;1253;72747;-82
2023/11/10 01:23:52;;;;;;;18.20;8.90;;;;;;;7.75;91.22;101311.92;106910;1253;60608;-82
2023/11/10 01:26:27;;;;;;;20.40;9.30;;;;;;;7.68;91.60;101312.53;106469;1252;60501;-82
2023/11/10 01:29:01;;;;;;;26.00;10.80;;;;;;;7.61;91.53;101310.63;106294;1253;72909;-82
2023/11/10 01:31:35;;;;;;;21.10;10.00;;;;;;;7.57;91.53;101310.34;106326;1257;68418;-83
2023/11/10 01:34:09;;;;;;;19.60;9.00;;;;;;;7.55;91.10;101309.59;106367;1253;72815;-83
2023/11/10 01:36:43;;;;;;;18.10;8.70;;;;;;;7.45;91.27;101313.70;106820;1258;60558;-83
2023/11/10 01:39:17;;;;;;;18.30;8.10;;;;;;;7.30;92.28;101309.34;106258;1253;60565;-83
2023/11/10 01:41:52;;;;;;;21.50;9.80;;;;;;;7.13;94.06;101306.23;106229;1256;73895;-83
2023/11/10 01:44:26;;;;;;;21.50;10.10;;;;;;;7.15;93.95;101304.00;106260;1254;69009;-82
2023/11/10 01:47:00;;;;;;;19.10;8.50;;;;;;;7.23;93.39;101301.84;106742;1253;71527;-82
2023/11/10 01:49:34;;;;;;;18.90;9.70;;;;;;;7.22;92.95;101309.52;106320;1253;60424;-82
2023/11/10 01:52:07;;;;;;;18.20;9.00;;;;;;;7.35;92.17;101306.19;106410;1258;60687;-83
2023/11/10 01:54:42;;;;;;;17.60;8.50;;;;;;;7.38;91.41;101311.70;106258;1254;73821;-82
2023/11/10 01:57:16;;;;;;;17.30;9.50;;;;;;;7.29;91.64;101311.48;106912;1251;68100;-82
2023/11/10 01:59:56;;;;;;;29.00;14.00;;;;;;;7.20;92.30;101315.85;106408;1256;71139;-83
2023/11/10 02:02:29;;;;;;;30.20;13.40;;;;;;;7.19;92.27;101317.73;106394;1254;60787;-83
2023/11/10 02:05:04;;;;;;;27.50;12.30;;;;;;;7.07;92.86;101316.14;106372;1253;60517;-80
2023/11/10 02:07:37;;;;;;;28.20;13.10;;;;;;;7.04;93.65;101318.02;106909;1256;72608;-82
2023/11/10 02:10:11;;;;;;;25.20;12.40;;;;;;;7.10;93.03;101315.41;106169;1251;68735;-83
2023/11/10 02:12:52;;;;;;;25.20;11.60;;;;;;;7.15;92.48;101316.60;106397;1251;72693;-83
2023/11/10 02:15:26;;;;;;;24.50;11.60;;;;;;;7.27;91.10;101312.86;106285;1254;60639;-83
2023/11/10 02:18:00;;;;;;;21.20;10.90;;;;;;;7.29;90.58;101312.86;107027;1253;60375;-82
2023/11/10 02:20:34;;;;;;;20.80;10.40;;;;;;;7.23;90.80;101311.34;106542;1253;73969;-83
2023/11/10 02:23:08;;;;;;;17.00;9.60;;;;;;;7.27;90.48;101314.62;106247;1253;67419;-83
2023/11/10 02:25:52;;;;;;;19.00;9.60;;;;;;;7.29;89.85;101313.99;106175;1258;71454;-83
2023/11/10 02:28:35;;;;;;;20.10;8.90;;;;;;;7.33;89.44;101321.04;107106;1254;60426;-83
2023/11/10 02:31:16;;;;;;;;;;;;;;;7.23;90.14;101318.15;106275;1251;60453;-82
2023/11/10 02:33:55;;;;;;;22.50;9.30;;;;;;;7.29;89.27;101309.65;106332;1253;72624;-83
2023/11/10 02:36:37;;;;;;;19.10;8.80;;;;;;;7.30;88.88;101319.23;106305;1251;67606;-83
2023/11/10 02:39:22;;;;;;;17.20;8.80;;;;;;;7.31;88.52;101322.15;106795;1253;71086;-82
2023/11/10 02:42:15;;;;;;;15.40;8.60;;;;;;;7.41;87.65;101322.48;106587;1253;60436;-83
2023/11/10 02:44:55;;;;;;;16.30;7.80;;;;;;;7.37;87.51;101318.84;106309;1251;60651;-82
2023/11/10 02:47:36;;;;;;;15.60;7.90;;;;;;;7.25;88.14;101318.91;106690;1251;72838;-82
2023/11/10 02:50:16;;;;;;;13.10;6.70;;;;;;;7.38;87.34;101319.20;106377;1253;67381;-82
2023/11/10 02:53:00;;;;;;;16.30;7.70;;;;;;;7.51;86.09;101322.49;106202;1253;72638;-82
2023/11/10 02:55:40;;;;;;;17.10;8.10;;;;;;;7.44;86.15;101321.84;106309;1255;60429;-82
2023/11/10 02:58:21;;;;;;;16.60;7.90;;;;;;;7.40;86.38;101319.40;106673;1251;60352;-82
2023/11/10 03:01:00;;;;;;;14.80;7.50;;;;;;;7.35;86.74;101323.05;106306;1253;72564;-82
2023/11/10 03:03:40;;;;;;;15.50;7.50;;;;;;;7.29;86.91;101327.75;106363;1254;68403;-84
2023/11/10 03:06:14;;;;;;;16.20;7.80;;;;;;;7.29;86.75;101326.40;106410;1253;72709;-84
2023/11/10 03:08:44;;;;;;;14.20;7.40;;;;;;;7.38;85.76;101325.45;106678;1256;60537;-84
2023/11/10 03:11:18;;;;;;;14.50;6.90;;;;;;;7.46;84.40;101330.10;106408;1252;60493;-84
2023/11/10 03:13:46;;;;;;;13.40;7.60;;;;;;;7.44;84.28;101329.46;106479;1253;74146;-83
2023/11/10 03:16:21;;;;;;;15.20;7.30;;;;;;;7.38;84.80;101328.77;106370;1253;68536;-82
2023/11/10 03:19:02;;;;;;;14.10;7.50;;;;;;;7.46;84.27;101330.10;106635;1253;72691;-81
2023/11/10 03:21:36;;;;;;;14.70;6.90;;;;;;;7.47;83.91;101333.22;106145;1254;61023;-82
2023/11/10 03:24:04;;;;;;;13.70;7.00;;;;;;;7.34;84.60;101330.30;106354;1253;59985;-82
2023/11/10 03:26:42;;;;;;;14.60;7.40;;;;;;;7.32;84.99;101334.56;106429;1252;72565;-83
2023/11/10 03:29:16;;;;;;;15.00;7.50;;;;;;;7.20;85.42;101333.64;106451;1256;67093;-82
2023/11/10 03:31:49;;;;;;;13.30;7.40;;;;;;;7.22;85.39;101334.93;106987;1253;72648;-82
2023/11/10 03:34:23;;;;;;;13.90;7.40;;;;;;;7.16;85.62;101333.37;106198;1253;60508;-83
2023/11/10 03:36:52;;;;;;;17.30;7.50;;;;;;;7.03;86.26;101335.55;106296;1255;60351;-84
2023/11/10 03:39:20;;;;;;;13.40;7.00;;;;;;;7.07;85.95;101336.02;106399;1257;73788;-83
2023/11/10 03:41:52;;;;;;;13.00;6.70;;;;;;;7.05;86.09;101336.82;106823;1256;68556;-83
2023/11/10 03:44:22;;;;;;;14.60;6.60;;;;;;;7.02;85.99;101339.50;106273;1258;71482;-83
2023/11/10 03:46:50;;;;;;;17.00;6.50;;;;;;;7.04;85.76;101336.88;106231;1251;60534;-84
2023/11/10 03:49:20;;;;;;;17.40;6.80;;;;;;;7.00;85.84;101339.23;106350;1253;60496;-84
2023/11/10 03:51:51;;;;;;;17.00;6.90;;;;;;;7.00;85.90;101341.24;106207;1253;74156;-82
2023/11/10 03:54:23;;;;;;;14.70;6.90;;;;;;;7.00;86.00;101338.15;106359;1251;67241;-83
2023/11/10 03:56:50;;;;;;;11.00;6.10;;;;;;;7.06;85.35;101334.98;106268;1256;70362;-84
2023/11/10 03:59:21;;;;;;;10.90;6.50;;;;;;;7.04;84.85;101329.77;106396;1255;60524;-83
2023/11/10 04:01:55;;;;;;;11.40;6.90;;;;;;;7.00;85.24;101334.35;106267;1253;60267;-84
2023/11/10 04:04:31;;;;;;;13.00;6.50;;;;;;;6.99;84.79;101334.80;106835;1256;73849;-84
2023/11/10 04:07:03;;;;;;;11.30;7.00;;;;;;;6.85;85.37;101333.70;106406;1253;68378;-82
2023/11/10 04:09:37;;;;;;;12.30;6.70;;;;;;;6.85;85.09;101332.83;106262;1257;72717;-82
2023/11/10 04:12:12;;;;;;;26.10;14.30;;;;;;;6.74;86.00;101336.52;106431;1253;60544;-85
2023/11/10 04:14:46;;;;;;;17.80;9.40;;;;;;;6.79;85.57;101343.04;106917;1258;60338;-83
2023/11/10 04:17:14;;;;;;;16.10;8.60;;;;;;;6.75;85.52;101343.39;106765;1251;73849;-82
2023/11/10 04:19:43;;;;;;;15.90;7.80;;;;;;;6.86;84.87;101348.73;108574;1253;68116;-83
2023/11/10 04:22:11;;;;;;;16.30;7.10;;;;;;;6.89;84.14;101351.41;106223;1253;72656;-84
2023/11/10 04:24:40;;;;;;;13.10;7.50;;;;;;;6.84;84.33;101351.08;106834;1253;60437;-83
2023/11/10 04:27:12;;;;;;;12.20;7.10;;;;;;;6.79;84.25;101348.38;106389;1251;60566;-84
2023/11/10 04:29:47;;;;;;;9.70;5.30;;;;;;;6.79;84.32;101345.92;106371;1251;73868;-82
2023/11/10 04:32:15;;;;;;;13.90;6.60;;;;;;;6.50;86.34;101345.50;106443;1257;67128;-85
2023/11/10 04:34:42;;;;;;;14.20;6.20;;;;;;;6.74;85.06;101350.69;106599;1253;72756;-81
2023/11/10 04:37:10;;;;;;;12.50;7.40;;;;;;;6.75;84.63;101349.03;106571;1253;60532;-83
2023/11/10 04:39:44;;;;;;;12.90;7.40;;;;;;;6.80;84.30;101354.38;106408;1258;60446;-82
2023/11/10 04:42:12;;;;;;;11.60;7.50;;;;;;;6.89;83.57;101348.98;106600;1253;72616;-83
2023/11/10 04:44:45;;;;;;;14.50;7.00;;;;;;;6.89;83.01;101351.46;106396;1255;68918;-82
2023/11/10 04:47:13;;;;;;;12.10;6.40;;;;;;;6.75;83.61;101357.02;106781;1253;72677;-83
2023/11/10 04:49:47;;;;;;;15.70;7.20;;;;;;;6.73;84.00;101360.88;106270;1258;60525;-82
2023/11/10 04:52:15;;;;;;;15.70;6.80;;;;;;;6.62;84.72;101367.90;106435;1256;60390;-83
2023/11/10 04:54:45;;;;;;;14.50;8.10;;;;;;;6.59;84.89;101370.83;106358;1253;73017;-83
2023/11/10 04:57:13;;;;;;;16.20;7.70;;;;;;;6.62;85.02;101368.44;107436;1256;67263;-83
2023/11/10 04:59:48;;;;;;;13.70;6.90;;;;;;;6.69;84.80;101371.73;106431;1253;71212;-83
2023/11/10 05:02:16;;;;;;;13.60;6.80;;;;;;;6.48;85.86;101369.98;106185;1257;61388;-82
2023/11/10 05:04:44;;;;;;;14.60;7.40;;;;;;;6.58;85.42;101373.61;106249;1255;60355;-82
2023/11/10 05:07:18;;;;;;;15.30;7.30;;;;;;;6.55;85.88;101377.35;106449;1252;72539;-83
2023/11/10 05:09:45;;;;;;;17.80;9.10;;;;;;;6.54;85.90;101378.30;106282;1253;68545;-82
2023/11/10 05:12:13;;;;;;;18.00;9.90;;;;;;;6.48;86.88;101383.13;106355;1253;71420;-83
2023/11/10 05:14:54;;;;;;;19.40;10.50;;;;;;;6.53;86.76;101384.45;106450;1251;60469;-82
2023/11/10 05:17:28;;;;;;;19.30;10.30;;;;;;;6.66;86.02;101388.06;106722;1253;60445;-82
2023/11/10 05:19:55;;;;;;;20.40;10.30;;;;;;;6.71;86.11;101391.68;106335;1257;73891;-83
2023/11/10 05:22:23;;;;;;;15.40;8.40;;;;;;;6.70;86.53;101388.88;106429;1253;68929;-83
2023/11/10 05:24:57;;;;;;;17.80;8.30;;;;;;;6.68;87.00;101391.60;106284;1251;71232;-83
2023/11/10 05:27:31;;;;;;;17.30;7.70;;;;;;;6.76;86.69;101394.10;106381;1254;60547;-83
2023/11/10 05:30:03;;;;;;;17.10;7.90;;;;;;;6.83;86.65;101397.55;106892;1253;61008;-83
2023/11/10 05:32:33;;;;;;;13.50;8.20;;;;;;;6.83;87.08;101407.05;106356;1251;72563;-83
2023/11/10 05:35:08;;;;;;;17.20;8.80;;;;;;;6.88;87.73;101408.93;106341;1252;67358;-83
2023/11/10 05:37:42;;;;;;;15.80;8.10;;;;;;;6.99;87.85;101410.66;106586;1251;71585;-83
2023/11/10 05:40:10;;;;;;;23.30;11.40;;;;;;;7.05;88.38;101418.77;106269;1253;60547;-83
2023/11/10 05:42:51;;;;;;;22.10;11.10;;;;;;;7.16;88.14;101418.72;106480;1258;60599;-83
2023/11/10 05:45:28;;;;;;;18.70;9.70;;;;;;;7.20;88.78;101419.54;106360;1258;72687;-83
2023/11/10 05:48:02;;;;;;;24.90;11.70;;;;;;;7.33;89.47;101422.26;106271;1258;68385;-83
2023/11/10 05:50:36;;;;;;;22.40;12.30;;;;;;;7.57;89.71;101421.23;106378;1253;72235;-83
2023/11/10 05:53:11;;;;;;;25.40;12.90;;;;;;;7.74;90.05;101421.86;106754;1252;60351;-83
2023/11/10 05:55:51;;;;;;;30.20;14.00;;;;;;;7.81;91.61;101420.55;106435;1253;60405;-83
2023/11/10 05:58:26;;;;;;;30.30;16.10;;;;;;;8.01;92.80;101422.31;106391;1251;73837;-83
2023/11/10 06:00:55;;;;;;;25.60;14.30;;;;;;;8.26;93.62;101421.27;106255;1253;67278;-83
2023/11/10 06:03:32;;;;;;;29.40;15.50;;;;;;;8.52;93.70;101419.83;107090;1255;72674;-83
2023/11/10 06:06:07;;;;;;;29.90;15.50;;;;;;;8.68;94.63;101423.77;106222;1251;60554;-84
2023/11/10 06:08:36;;;;;;;25.90;14.60;;;;;;;8.92;95.40;101418.77;106211;1253;60370;-84
2023/11/10 06:11:07;;;;;;;28.30;15.60;;;;;;;9.15;95.46;101426.77;106187;1253;73843;-84
2023/11/10 06:13:41;;;;;;;28.50;15.70;;;;;;;9.31;96.38;101426.50;106183;1259;67418;-83
2023/11/10 06:16:15;;;;;;;30.10;16.80;;;;;;;9.55;96.88;101419.84;106794;1256;72655;-83
2023/11/10 06:18:46;;;;;;;31.80;17.80;;;;;;;9.74;97.50;101417.52;106192;1258;59750;-85
2023/11/10 06:21:23;;;;;;;29.50;15.60;;;;;;;10.01;97.69;101418.72;106148;1258;60665;-85
2023/11/10 06:23:57;;;;;;;28.50;15.60;;;;;;;10.19;98.12;101413.01;106447;1252;73781;-85
2023/11/10 06:26:30;;;;;;;30.10;16.60;;;;;;;10.41;98.42;101414.64;107292;1255;68821;-86
2023/11/10 06:29:03;;;;;;;28.80;16.10;;;;;;;10.70;98.39;101411.52;106458;1255;71120;-86
2023/11/10 06:31:30;;;;;;;;;;;;;;;10.86;98.82;101410.48;106137;1253;60432;-85
2023/11/10 06:34:04;;;;;;;30.30;15.10;;;;;;;11.01;99.47;101403.48;106549;1253;60395;-84
2023/11/10 06:36:32;;;;;;;30.60;15.90;;;;;;;11.18;99.85;101399.95;107210;1257;73829;-86
2023/11/10 06:39:06;;;;;;;27.00;15.30;;;;;;;11.41;100.00;101403.70;106447;1253;68400;-85
2023/11/10 06:41:34;;;;;;;30.40;14.80;;;;;;;11.68;100.00;101398.31;106551;1256;72665;-86
2023/11/10 06:44:09;;;;;;;27.40;14.80;;;;;;;11.89;100.00;101404.38;106461;1256;60453;-85
2023/11/10 06:46:43;;;;;;;28.10;16.30;;;;;;;12.07;100.00;101398.63;107204;1258;59244;-85
2023/11/10 06:49:17;;;;;;;27.30;13.90;;;;;;;12.25;100.00;101398.05;106295;1258;73758;-86
2023/11/10 06:51:46;;;;;;;26.80;14.60;;;;;;;12.46;100.00;101395.67;106409;1251;67338;-86
2023/11/10 06:54:15;;;;;;;28.30;14.30;;;;;;;12.69;100.00;101394.31;106421;1256;72723;-85
2023/11/10 06:56:43;;;;;;;27.10;13.40;;;;;;;12.86;100.00;101393.48;106772;1256;60621;-86
2023/11/10 06:59:11;;;;;;;27.40;14.60;;;;;;;13.04;100.00;101385.98;106627;1252;60472;-85
2023/11/10 07:01:39;;;;;;;30.30;15.60;;;;;;;13.16;100.00;101383.69;106297;1256;73913;-85
2023/11/10 07:04:06;;;;;;;24.60;13.50;;;;;;;13.24;100.00;101386.50;106372;1253;69097;-85
2023/11/10 11:08:26;;;;;;;7.00;3.20;;;;;;;18.92;49.60;101212.44;106237;1253;73440;-83
2023/11/10 11:11:13;;;;;;;5.90;2.80;;;;;;;18.76;49.79;101206.83;106407;1258;60506;-83
2023/11/10 11:14:10;;;;;;;5.20;3.60;;;;;;;18.71;49.96;101201.63;106847;1256;61373;-83
2023/11/10 11:17:17;;;;;;;5.70;3.00;;;;;;;18.77;49.64;101199.95;106216;1254;74917;-82
2023/11/10 11:19:45;;;;;;;5.10;3.00;;;;;;;18.90;49.41;101201.77;106152;1256;71084;-82
2023/11/10 11:22:13;;;;;;;4.40;3.00;;;;;;;18.87;49.35;101199.41;106170;1260;74096;-83
2023/11/10 11:24:44;;;;;;;4.50;2.70;;;;;;;18.87;49.64;101193.93;106347;1256;60539;-83
2023/11/10 11:27:20;;;;;;;5.20;3.00;;;;;;;18.95;49.79;101192.91;106097;1256;60534;-84
2023/11/10 11:29:55;;;;;;;5.10;2.60;;;;;;;19.02;49.39;101186.73;106238;1258;73885;-82
2023/11/10 11:32:30;;;;;;;4.10;2.40;;;;;;;19.09;49.30;101187.65;106051;1259;69766;-82
2023/11/10 11:35:00;;;;;;;5.00;2.50;;;;;;;19.00;49.49;101184.61;106733;1256;72848;-83
2023/11/10 11:37:33;;;;;;;4.00;2.40;;;;;;;18.93;49.33;101179.27;106161;1261;60553;-83
2023/11/10 11:40:09;;;;;;;3.60;2.30;;;;;;;18.93;49.30;101178.32;106161;1259;61569;-82
2023/11/10 11:42:42;;;;;;;6.40;2.40;;;;;;;18.94;49.39;101175.98;106385;1254;74921;-82
2023/11/10 11:45:14;;;;;;;3.90;2.60;;;;;;;18.94;48.90;101174.16;106267;1256;70161;-81
2023/11/10 11:47:49;;;;;;;3.60;2.20;;;;;;;18.93;48.51;101167.08;106404;1255;73256;-81
2023/11/10 11:50:20;;;;;;;3.00;2.20;;;;;;;18.97;48.87;101165.32;106301;1260;60650;-82
2023/11/10 11:52:53;;;;;;;3.60;2.40;;;;;;;19.00;48.98;101160.96;106182;1254;61939;-81
2023/11/10 11:55:25;;;;;;;2.60;2.10;;;;;;;19.07;48.67;101160.28;106323;1260;76081;-82
2023/11/10 11:58:01;;;;;;;5.90;3.00;;;;;;;19.07;48.56;101160.89;107124;1255;70260;-81
2023/11/10 12:00:34;;;;;;;3.60;2.50;;;;;;;19.05;48.78;101158.72;106154;1254;74660;-82
2023/11/10 12:03:07;;;;;;;3.50;1.90;;;;;;;19.04;48.24;101159.91;106131;1261;61005;-81
2023/11/10 12:05:45;;;;;;;2.50;2.10;;;;;;;19.05;48.38;101154.70;106482;1259;60543;-83
2023/11/10 12:08:16;;;;;;;3.40;2.10;;;;;;;19.04;48.25;101149.39;106909;1256;74315;-82
2023/11/10 12:10:48;;;;;;;3.10;2.00;;;;;;;18.99;47.95;101153.14;106182;1256;68776;-82
2023/11/10 12:13:22;;;;;;;;;;;;;;;19.07;47.25;101151.71;106264;1259;75410;-81
2023/11/10 12:15:56;;;;;;;4.30;2.50;;;;;;;19.17;46.83;101149.92;106357;1259;60555;-83
2023/11/10 12:18:29;;;;;;;2.80;1.70;;;;;;;19.15;46.78;101149.60;106929;1254;59839;-83
2023/11/10 12:21:06;;;;;;;3.10;1.50;;;;;;;19.15;46.27;101145.80;106452;1257;74954;-82
2023/11/10 12:23:37;;;;;;;3.40;1.60;;;;;;;19.08;45.58;101149.83;106321;1260;71714;-83
2023/11/10 12:26:06;;;;;;;2.20;1.60;;;;;;;19.02;45.30;101147.02;106166;1259;73518;-83
2023/11/10 12:28:39;;;;;;;3.70;1.50;;;;;;;19.08;44.62;101140.77;106408;1260;60442;-83
2023/11/10 12:31:11;;;;;;;1.90;1.10;;;;;;;19.11;44.05;101145.88;106277;1257;60555;-83
2023/11/10 12:33:45;;;;;;;3.60;1.60;;;;;;;19.08;43.88;101145.46;106496;1254;75932;-84
2023/11/10 12:36:20;;;;;;;2.10;1.40;;;;;;;18.99;43.54;101148.14;106292;1258;70691;-83
2023/11/10 12:38:53;;;;;;;1.30;1.10;;;;;;;18.93;43.84;101143.50;107243;1253;75085;-83
2023/11/10 12:41:28;;;;;;;4.90;1.40;;;;;;;18.90;43.98;101140.36;106322;1254;61506;-82
2023/11/10 12:43:58;;;;;;;2.10;1.30;;;;;;;18.83;43.94;101141.50;106209;1259;61697;-83
2023/11/10 12:46:31;;;;;;;2.10;1.30;;;;;;;18.79;43.97;101140.28;106370;1256;73889;-83
2023/11/10 12:49:03;;;;;;;3.90;1.20;;;;;;;18.79;43.86;101146.14;106881;1254;70652;-82
2023/11/10 12:51:37;;;;;;;3.10;1.70;;;;;;;18.74;44.03;101141.56;106240;1260;73649;-83
2023/11/10 12:54:10;;;;;;;2.80;1.30;;;;;;;18.75;44.13;101138.54;106410;1255;60348;-82
2023/11/10 12:56:44;;;;;;;1.80;1.00;;;;;;;18.78;44.14;101137.03;106304;1254;61041;-83
2023/11/10 12:59:29;;;;;;;2.50;1.10;;;;;;;18.87;44.10;101135.23;106416;1258;75065;-83
2023/11/10 13:01:59;;;;;;;1.60;1.10;;;;;;;18.79;43.94;101130.80;107018;1259;67257;-82
2023/11/10 13:04:28;;;;;;;2.40;1.20;;;;;;;18.69;44.12;101133.69;106315;1257;74555;-82
2023/11/10 13:06:56;;;;;;;4.70;1.60;;;;;;;18.72;44.33;101135.86;106227;1259;62580;-82
2023/11/10 13:09:29;;;;;;;3.40;1.40;;;;;;;18.82;43.99;101136.39;106379;1259;61292;-82
2023/11/10 13:12:03;;;;;;;3.90;1.60;;;;;;;18.79;44.03;101140.94;107140;1253;74052;-84
2023/11/10 13:14:38;;;;;;;3.50;1.80;;;;;;;18.74;44.00;101138.13;106559;1260;69136;-84
2023/11/10 13:17:11;;;;;;;3.40;1.50;;;;;;;18.56;44.44;101138.20;106506;1254;74822;-83
2023/11/10 13:19:44;;;;;;;3.90;1.70;;;;;;;18.48;44.39;101138.90;106341;1258;60607;-82
2023/11/10 13:22:17;;;;;;;2.10;1.70;;;;;;;18.27;44.63;101143.12;106660;1255;60918;-83
2023/11/10 13:24:50;;;;;;;3.90;1.60;;;;;;;18.33;44.50;101142.94;106355;1260;74451;-82
2023/11/10 13:27:26;;;;;;;3.00;1.70;;;;;;;18.33;44.64;101145.25;106496;1259;70555;-83
2023/11/10 13:29:59;;;;;;;3.40;1.80;;;;;;;18.25;44.34;101142.40;106306;1257;73812;-82
2023/11/10 13:32:34;;;;;;;2.50;1.80;;;;;;;18.24;44.23;101138.39;107254;1257;60463;-82
2023/11/10 13:35:05;;;;;;;2.80;1.80;;;;;;;18.20;44.46;101136.44;106418;1266;60446;-82
2023/11/10 13:37:35;;;;;;;4.20;1.80;;;;;;;18.26;44.39;101131.34;106462;1256;75778;-84
2023/11/10 13:40:22;;;;;;;2.80;1.70;;;;;;;18.21;44.54;101125.63;106959;1254;68512;-83
2023/11/10 13:42:52;;;;;;;3.10;1.90;;;;;;;18.08;44.88;101127.55;106817;1259;74129;-83
2023/11/10 13:45:21;;;;;;;3.30;1.90;;;;;;;17.94;45.22;101124.69;106730;1255;60508;-83
2023/11/10 13:47:54;;;;;;;4.30;1.80;;;;;;;17.87;45.69;101121.95;106731;1260;62340;-83
2023/11/10 13:50:29;;;;;;;3.80;2.20;;;;;;;17.80;46.03;101118.14;106784;1259;73802;-83
2023/11/10 13:53:02;;;;;;;2.80;2.10;;;;;;;17.82;46.16;101117.04;106954;1259;69878;-83
2023/11/10 13:55:33;;;;;;;2.80;1.70;;;;;;;17.78;46.57;101115.41;106288;1259;70976;-82
2023/11/10 13:58:05;;;;;;;5.90;2.10;;;;;;;17.74;46.91;101111.17;106401;1253;60751;-83
2023/11/10 14:00:40;;;;;;;;;;;;;;;17.62;47.21;101109.38;106578;1254;61444;-83
2023/11/10 14:03:11;;;;;;;4.10;1.90;;;;;;;17.60;47.43;101105.45;107000;1254;73893;-82
2023/11/10 14:05:42;;;;;;;2.40;1.80;;;;;;;17.66;47.36;101101.41;106482;1255;67607;-82
2023/11/10 14:08:15;;;;;;;4.40;2.10;;;;;;;17.59;47.61;101107.30;106613;1256;73152;-83
2023/11/10 14:10:47;;;;;;;4.20;2.20;;;;;;;17.56;47.76;101103.72;106428;1257;61050;-82
2023/11/10 14:13:20;;;;;;;4.00;2.20;;;;;;;17.53;47.76;101099.48;106335;1258;61437;-83
2023/11/10 14:15:53;;;;;;;4.50;2.00;;;;;;;17.55;47.77;101095.46;106629;1254;73792;-82
2023/11/10 14:18:26;;;;;;;4.80;2.50;;;;;;;17.48;47.85;101094.13;106716;1260;69463;-83
2023/11/10 14:20:59;;;;;;;5.10;2.70;;;;;;;17.38;48.13;101093.41;106241;1258;72522;-83
2023/11/10 14:23:31;;;;;;;5.40;2.90;;;;;;;17.37;48.11;101089.30;106175;1260;62657;-83
2023/11/10 14:26:14;;;;;;;7.20;3.30;;;;;;;17.23;48.51;101086.56;106201;1254;60572;-83
2023/11/10 14:28:41;;;;;;;4.80;2.80;;;;;;;17.26;48.44;101088.08;106703;1257;72641;-84
2023/11/10 14:31:10;;;;;;;5.50;2.70;;;;;;;17.17;48.57;101087.52;106197;1259;69544;-85
2023/11/10 14:33:42;;;;;;;8.00;3.10;;;;;;;17.07;48.78;101086.55;106276;1257;73086;-81
2023/11/10 14:36:19;;;;;;;7.60;3.70;;;;;;;17.01;48.96;101085.47;106233;1258;62235;-83
2023/11/10 14:38:53;;;;;;;6.40;3.20;;;;;;;16.95;49.09;101088.95;106602;1254;60937;-83
2023/11/10 14:41:30;;;;;;;6.50;3.50;;;;;;;16.78;49.49;101087.61;106231;1254;73870;-84
2023/11/10 14:44:04;;;;;;;5.30;3.10;;;;;;;16.66;49.96;101086.44;106225;1259;71405;-83
2023/11/10 14:46:37;;;;;;;5.40;3.00;;;;;;;16.61;50.08;101078.98;106320;1255;72716;-84
2023/11/10 14:49:10;;;;;;;6.30;3.00;;;;;;;16.47;50.57;101078.58;106568;1254;60569;-83
2023/11/10 14:51:45;;;;;;;4.20;2.70;;;;;;;16.40;50.90;101073.63;106342;1259;60436;-83
2023/11/10 14:54:18;;;;;;;4.70;2.60;;;;;;;16.26;51.34;101075.52;106358;1259;73883;-83
2023/11/10 14:56:57;;;;;;;8.60;3.10;;;;;;;16.23;51.71;101071.61;106757;1256;67294;-83
2023/11/10 14:59:25;;;;;;;5.50;3.40;;;;;;;16.17;52.24;101071.48;106489;1254;72976;-83
2023/11/10 15:01:54;;;;;;;8.30;4.00;;;;;;;16.04;52.72;101067.70;106235;1260;60540;-83
2023/11/10 15:04:32;;;;;;;5.50;3.30;;;;;;;15.97;53.52;101062.66;106264;1254;60528;-82
2023/11/10 19:08:44;;;;;;;62.60;19.50;;;;;;;15.31;54.72;101003.70;107164;1255;67160;-85
2023/11/10 19:11:14;;;;;;;62.60;17.90;;;;;;;15.38;54.31;101004.81;106523;1253;71120;-85
2023/11/10 19:13:42;;;;;;;62.80;19.70;;;;;;;15.39;54.06;101005.70;106368;1254;61032;-87
2023/11/10 19:16:10;;;;;;;62.60;20.30;;;;;;;15.30;54.01;101007.10;106401;1254;60497;-87
2023/11/10 19:18:38;;;;;;;50.90;17.50;;;;;;;15.25;53.92;101008.92;106500;1257;74171;-87
2023/11/10 19:21:06;;;;;;;50.10;17.80;;;;;;;15.16;54.16;101004.20;107538;1253;69987;-84
2023/11/10 19:23:34;;;;;;;32.20;13.30;;;;;;;15.15;54.17;101006.20;106360;1257;75320;-83
2023/11/10 19:26:07;;;;;;;43.50;16.10;;;;;;;15.02;54.15;100996.19;106471;1253;62987;-87
2023/11/10 19:28:41;;;;;;;34.70;11.40;;;;;;;15.02;54.27;100995.04;106787;1251;60384;-83
2023/11/10 19:31:12;;;;;;;29.20;11.90;;;;;;;14.94;54.36;100998.39;106517;1253;73639;-87
2023/11/10 19:33:44;;;;;;;42.60;14.60;;;;;;;14.92;54.36;100998.25;106391;1253;71492;-85
2023/11/10 19:36:23;;;;;;;38.50;13.60;;;;;;;14.94;54.11;101000.14;106389;1253;74139;-83
2023/11/10 19:38:55;;;;;;;31.30;12.10;;;;;;;14.90;54.03;100994.20;106268;1253;60627;-85
2023/11/10 19:41:26;;;;;;;30.90;11.40;;;;;;;14.83;54.04;100991.54;106477;1253;60597;-83
2023/11/10 19:43:59;;;;;;;29.50;11.40;;;;;;;14.80;54.13;100987.58;106392;1255;74634;-84
2023/11/10 19:46:37;;;;;;;34.90;13.20;;;;;;;14.73;54.22;100986.50;106321;1252;70273;-86